createdAt,value
2023-05-10T00:00:08.630Z,46.54
2023-05-10T00:01:34.654Z,46.86
2023-05-10T00:02:36.190Z,46.51
2023-05-10T00:03:38.032Z,47.06
2023-05-10T00:04:39.876Z,46.52
2023-05-10T00:05:41.631Z,46.71
2023-05-10T00:06:43.389Z,46.52
2023-05-10T00:07:47.717Z,46.59
2023-05-10T00:08:49.200Z,46.57
2023-05-10T00:09:50.656Z,46.75
2023-05-10T00:10:53.195Z,47.09
2023-05-10T00:11:54.783Z,46.94
2023-05-10T00:12:56.269Z,46.72
2023-05-10T00:13:57.769Z,46.83
2023-05-10T00:14:59.381Z,46.76
2023-05-10T00:16:00.848Z,46.95
2023-05-10T00:17:02.351Z,46.93
2023-05-10T00:18:03.929Z,47.02
2023-05-10T00:19:05.444Z,47.43
2023-05-10T00:20:07.560Z,47.48
2023-05-10T00:21:09.162Z,47.27
2023-05-10T00:22:10.780Z,47.42
2023-05-10T00:23:12.880Z,47.32
2023-05-10T00:24:14.290Z,47.18
2023-05-10T00:25:15.787Z,47.31
2023-05-10T00:26:17.372Z,47.13
2023-05-10T00:27:20.047Z,47.42
2023-05-10T00:28:21.560Z,47.22
2023-05-10T00:29:22.969Z,47.36
2023-05-10T00:30:24.660Z,47.49
2023-05-10T00:31:26.744Z,47.51
2023-05-10T00:32:28.421Z,47.49
2023-05-10T00:33:30.986Z,47.48
2023-05-10T00:34:32.585Z,47.50
2023-05-10T00:35:34.294Z,47.71
2023-05-10T00:36:35.823Z,47.66
2023-05-10T00:37:37.279Z,47.62
2023-05-10T00:38:38.671Z,47.34
2023-05-10T00:39:40.131Z,47.79
2023-05-10T00:40:41.917Z,47.51
2023-05-10T00:41:47.791Z,47.86
2023-05-10T00:42:49.155Z,47.96
2023-05-10T00:43:50.607Z,47.80
2023-05-10T00:44:52.113Z,47.52
2023-05-10T00:45:54.399Z,47.69
2023-05-10T00:46:56.198Z,47.86
2023-05-10T00:47:57.638Z,47.90
2023-05-10T00:48:59.664Z,48.04
2023-05-10T00:50:02.369Z,47.82
2023-05-10T00:51:04.079Z,47.88
2023-05-10T00:52:05.708Z,47.84
2023-05-10T00:53:08.324Z,47.94
2023-05-10T00:54:12.933Z,47.81
2023-05-10T00:55:14.404Z,48.08
2023-05-10T00:56:16.739Z,48.05
2023-05-10T00:57:18.342Z,47.88
2023-05-10T00:58:19.992Z,48.18
2023-05-10T00:59:21.793Z,47.76
2023-05-10T01:00:23.283Z,48.15
2023-05-10T01:01:25.734Z,48.14
2023-05-10T01:02:27.950Z,48.12
2023-05-10T01:03:29.972Z,48.09
2023-05-10T01:04:31.725Z,48.12
2023-05-10T01:05:33.254Z,48.33
2023-05-10T01:06:34.909Z,48.40
2023-05-10T01:07:36.481Z,48.58
2023-05-10T01:08:39.377Z,48.36
2023-05-10T01:09:40.886Z,48.27
2023-05-10T01:10:43.503Z,48.36
2023-05-10T01:11:45.365Z,48.49
2023-05-10T01:12:48.002Z,48.41
2023-05-10T01:13:57.512Z,48.47
2023-05-10T01:15:01.291Z,48.60
2023-05-10T01:16:03.712Z,48.65
2023-05-10T01:17:07.079Z,48.63
2023-05-10T01:18:09.458Z,48.76
2023-05-10T01:19:20.601Z,48.56
2023-05-10T01:20:22.366Z,48.68
2023-05-10T01:21:33.512Z,48.94
2023-05-10T01:22:59.100Z,48.44
2023-05-10T01:24:19.903Z,48.99
2023-05-10T01:25:39.807Z,49.09
2023-05-10T01:27:18.858Z,48.80
2023-05-10T01:29:03.054Z,48.87
2023-05-10T01:32:16.950Z,49.10
2023-05-10T01:33:57.104Z,49.22
2023-05-10T01:35:29.408Z,49.21
2023-05-10T01:36:55.932Z,49.44
2023-05-10T01:38:09.462Z,49.30
2023-05-10T01:39:15.652Z,49.62
2023-05-10T01:40:23.617Z,49.59
2023-05-10T01:41:46.268Z,49.46
2023-05-10T01:42:55.866Z,49.49
2023-05-10T01:44:10.447Z,49.67
2023-05-10T01:45:20.381Z,49.78
2023-05-10T01:46:29.251Z,49.75
2023-05-10T01:47:39.169Z,49.84
2023-05-10T01:48:48.760Z,49.53
2023-05-10T01:49:54.849Z,50.03
2023-05-10T01:50:58.409Z,49.75
2023-05-10T01:52:09.013Z,49.84
2023-05-10T01:53:13.609Z,49.97
2023-05-10T01:54:19.821Z,49.90
2023-05-10T01:55:25.151Z,50.05
2023-05-10T01:56:28.531Z,49.98
2023-05-10T01:57:33.939Z,50.16
2023-05-10T01:58:38.435Z,50.16
2023-05-10T01:59:43.414Z,50.13
2023-05-10T02:00:46.633Z,50.41
2023-05-10T02:01:50.321Z,50.25
2023-05-10T02:02:53.255Z,50.34
2023-05-10T02:03:57.248Z,50.46
2023-05-10T02:05:00.280Z,50.39
2023-05-10T02:06:03.552Z,50.50
2023-05-10T02:07:07.169Z,50.60
2023-05-10T02:08:10.245Z,50.55
2023-05-10T02:09:13.369Z,50.72
2023-05-10T02:10:16.461Z,50.68
2023-05-10T02:11:21.856Z,50.74
2023-05-10T02:12:24.438Z,50.77
2023-05-10T02:13:28.847Z,50.65
2023-05-10T02:14:34.681Z,50.77
2023-05-10T02:15:38.998Z,50.76
2023-05-10T02:16:41.680Z,50.71
2023-05-10T02:17:44.530Z,50.78
2023-05-10T02:18:47.361Z,50.99
2023-05-10T02:19:49.957Z,50.90
2023-05-10T02:20:54.014Z,50.91
2023-05-10T02:21:57.547Z,50.94
2023-05-10T02:23:00.268Z,50.93
2023-05-10T02:24:03.590Z,51.02
2023-05-10T02:25:07.203Z,51.08
2023-05-10T02:26:09.906Z,51.04
2023-05-10T02:27:12.757Z,51.10
2023-05-10T02:28:15.849Z,50.92
2023-05-10T02:29:19.009Z,51.23
2023-05-10T02:30:22.017Z,51.17
2023-05-10T02:31:25.893Z,51.27
2023-05-10T02:32:29.507Z,51.20
2023-05-10T02:33:33.905Z,51.27
2023-05-10T02:34:36.548Z,51.24
2023-05-10T02:35:39.448Z,51.42
2023-05-10T02:36:42.494Z,51.37
2023-05-10T02:37:45.977Z,51.40
2023-05-10T02:38:49.296Z,51.55
2023-05-10T02:39:54.363Z,51.30
2023-05-10T02:40:57.002Z,51.39
2023-05-10T02:41:59.298Z,51.52
2023-05-10T02:43:02.858Z,51.37
2023-05-10T02:44:08.243Z,51.50
2023-05-10T02:45:15.067Z,51.39
2023-05-10T02:46:17.809Z,51.46
2023-05-10T02:47:19.944Z,51.52
2023-05-10T02:48:21.566Z,51.47
2023-05-10T02:49:23.566Z,51.41
2023-05-10T02:50:28.406Z,51.54
2023-05-10T02:51:34.037Z,51.47
2023-05-10T02:52:40.686Z,51.64
2023-05-10T02:53:44.795Z,51.74
2023-05-10T02:54:51.019Z,51.64
2023-05-10T02:55:57.436Z,51.68
2023-05-10T02:57:03.212Z,51.67
2023-05-10T02:58:04.728Z,51.67
2023-05-10T02:59:06.276Z,51.82
2023-05-10T03:00:08.838Z,51.82
2023-05-10T03:01:10.408Z,51.83
2023-05-10T03:02:15.105Z,51.93
2023-05-10T03:03:16.812Z,51.89
2023-05-10T03:04:18.535Z,51.97
2023-05-10T03:05:20.797Z,51.94
2023-05-10T03:06:22.468Z,52.01
2023-05-10T03:07:24.212Z,52.04
2023-05-10T03:08:26.367Z,52.07
2023-05-10T03:09:29.193Z,51.88
2023-05-10T03:10:32.919Z,52.16
2023-05-10T03:11:49.842Z,52.05
2023-05-10T03:13:17.100Z,52.04
2023-05-10T03:14:40.823Z,52.01
2023-05-10T03:16:09.784Z,52.18
2023-05-10T03:17:17.617Z,52.42
2023-05-10T03:18:23.893Z,52.26
2023-05-10T03:19:33.717Z,52.38
2023-05-10T03:20:38.039Z,52.31
2023-05-10T03:21:48.435Z,52.23
2023-05-10T03:23:25.531Z,52.20
2023-05-10T03:24:28.822Z,52.38
2023-05-10T03:25:32.839Z,52.46
2023-05-10T03:26:35.718Z,52.33
2023-05-10T03:27:44.522Z,52.43
2023-05-10T03:28:48.727Z,52.36
2023-05-10T03:29:51.546Z,52.31
2023-05-10T03:30:54.815Z,52.39
2023-05-10T03:31:57.903Z,52.32
2023-05-10T03:33:05.851Z,52.38
2023-05-10T03:34:07.414Z,52.32
2023-05-10T03:35:10.254Z,52.48
2023-05-10T03:36:12.065Z,52.50
2023-05-10T03:37:13.887Z,52.43
2023-05-10T03:38:15.693Z,52.32
2023-05-10T03:39:17.154Z,52.53
2023-05-10T03:40:19.509Z,52.55
2023-05-10T03:41:21.742Z,52.34
2023-05-10T03:42:23.607Z,52.49
2023-05-10T03:43:25.030Z,52.34
2023-05-10T03:44:27.295Z,52.47
2023-05-10T03:45:29.543Z,52.49
2023-05-10T03:46:31.116Z,52.44
2023-05-10T03:47:32.929Z,52.47
2023-05-10T03:48:35.219Z,52.33
2023-05-10T03:49:36.649Z,52.44
2023-05-10T03:50:38.437Z,52.45
2023-05-10T03:51:39.869Z,52.38
2023-05-10T03:52:41.480Z,52.33
2023-05-10T03:53:43.186Z,52.30
2023-05-10T03:54:44.610Z,52.27
2023-05-10T03:55:46.858Z,52.38
2023-05-10T03:56:48.298Z,52.29
2023-05-10T03:57:50.695Z,52.26
2023-05-10T03:58:52.259Z,52.27
2023-05-10T03:59:53.679Z,52.25
2023-05-10T04:00:55.944Z,52.18
2023-05-10T04:01:57.491Z,52.34
2023-05-10T04:02:59.204Z,52.11
2023-05-10T04:04:00.989Z,52.27
2023-05-10T04:05:03.045Z,52.21
2023-05-10T04:06:05.673Z,51.97
2023-05-10T04:07:08.292Z,51.93
2023-05-10T04:08:09.929Z,52.05
2023-05-10T04:09:11.384Z,51.80
2023-05-10T04:10:14.667Z,51.85
2023-05-10T04:11:16.334Z,51.98
2023-05-10T04:12:17.767Z,51.74
2023-05-10T04:13:19.408Z,51.84
2023-05-10T04:14:21.039Z,51.69
2023-05-10T04:15:22.536Z,51.63
2023-05-10T04:16:23.990Z,51.72
2023-05-10T04:17:25.536Z,51.84
2023-05-10T04:18:27.030Z,51.58
2023-05-10T04:19:31.621Z,51.44
2023-05-10T04:20:33.632Z,51.40
2023-05-10T04:21:35.020Z,51.39
2023-05-10T04:22:36.567Z,51.06
2023-05-10T04:23:38.259Z,51.45
2023-05-10T04:24:40.021Z,51.28
2023-05-10T04:25:41.483Z,51.06
2023-05-10T04:26:42.903Z,50.62
2023-05-10T04:27:44.306Z,50.79
2023-05-10T04:28:45.920Z,50.75
2023-05-10T04:29:47.440Z,50.85
2023-05-10T04:30:48.934Z,50.51
2023-05-10T04:31:51.210Z,50.59
2023-05-10T04:32:52.800Z,50.56
2023-05-10T04:33:54.559Z,50.62
2023-05-10T04:34:56.101Z,50.43
2023-05-10T04:35:57.629Z,50.44
2023-05-10T04:36:59.059Z,50.53
2023-05-10T04:38:00.443Z,50.05
2023-05-10T04:39:03.367Z,50.17
2023-05-10T04:40:06.540Z,50.40
2023-05-10T04:41:09.751Z,50.12
2023-05-10T04:42:11.684Z,50.07
2023-05-10T04:43:13.432Z,50.12
2023-05-10T04:44:14.963Z,49.98
2023-05-10T04:45:16.925Z,49.90
2023-05-10T04:46:19.130Z,49.69
2023-05-10T04:47:20.622Z,49.47
2023-05-10T04:48:22.034Z,49.83
2023-05-10T04:49:23.920Z,49.47
2023-05-10T04:50:25.444Z,49.13
2023-05-10T04:51:26.808Z,49.04
2023-05-10T04:52:28.169Z,49.31
2023-05-10T04:53:29.967Z,48.94
2023-05-10T04:54:33.693Z,49.19
2023-05-10T04:55:36.028Z,48.91
2023-05-10T04:56:37.681Z,49.16
2023-05-10T04:57:39.210Z,48.83
2023-05-10T04:58:40.711Z,48.71
2023-05-10T04:59:42.976Z,48.73
2023-05-10T05:00:44.535Z,48.79
2023-05-10T05:01:46.078Z,48.63
2023-05-10T05:02:47.653Z,48.46
2023-05-10T05:03:49.300Z,48.53
2023-05-10T05:04:51.350Z,48.35
2023-05-10T05:05:52.897Z,48.15
2023-05-10T05:06:54.281Z,48.14
2023-05-10T05:07:55.765Z,48.73
2023-05-10T05:08:57.213Z,48.04
2023-05-10T05:09:58.907Z,48.05
2023-05-10T05:11:00.528Z,48.00
2023-05-10T05:12:01.925Z,48.09
2023-05-10T05:13:03.468Z,48.23
2023-05-10T05:14:05.020Z,47.79
2023-05-10T05:15:09.770Z,47.77
2023-05-10T05:16:11.626Z,47.87
2023-05-10T05:17:13.139Z,47.65
2023-05-10T05:18:14.546Z,47.40
2023-05-10T05:19:16.089Z,47.47
2023-05-10T05:20:19.424Z,47.44
2023-05-10T05:21:21.860Z,46.91
2023-05-10T05:22:28.391Z,46.83
2023-05-10T05:23:30.452Z,46.83
2023-05-10T05:24:36.774Z,47.07
2023-05-10T05:25:38.314Z,46.89
2023-05-10T05:26:39.890Z,46.67
2023-05-10T05:27:41.535Z,46.78
2023-05-10T05:28:43.144Z,46.67
2023-05-10T05:29:44.513Z,46.83
2023-05-10T05:30:46.629Z,46.75
2023-05-10T05:31:48.063Z,46.66
2023-05-10T05:32:49.507Z,46.67
2023-05-10T05:33:51.041Z,46.48
2023-05-10T05:34:52.588Z,46.45
2023-05-10T05:35:54.184Z,46.58
2023-05-10T05:36:55.677Z,46.65
2023-05-10T05:37:57.065Z,46.38
2023-05-10T05:38:58.718Z,46.49
2023-05-10T05:40:02.057Z,46.15
2023-05-10T05:41:03.881Z,46.05
2023-05-10T05:42:05.428Z,45.85
2023-05-10T05:43:06.854Z,46.21
2023-05-10T05:44:08.561Z,46.05
2023-05-10T05:45:13.248Z,46.15
2023-05-10T05:46:15.033Z,46.02
2023-05-10T05:47:16.548Z,45.89
2023-05-10T05:48:18.087Z,45.68
2023-05-10T05:49:19.490Z,45.84
2023-05-10T05:50:20.900Z,45.79
2023-05-10T05:51:22.595Z,45.81
2023-05-10T05:52:24.013Z,45.68
2023-05-10T05:53:25.686Z,45.69
2023-05-10T05:54:28.192Z,45.63
2023-05-10T05:55:31.733Z,45.80
2023-05-10T05:56:33.601Z,45.60
2023-05-10T05:57:34.995Z,45.61
2023-05-10T05:58:36.388Z,45.47
2023-05-10T05:59:42.201Z,45.51
2023-05-10T06:00:43.612Z,45.52
2023-05-10T06:01:45.934Z,45.58
2023-05-10T06:02:48.271Z,45.29
2023-05-10T06:03:51.881Z,45.43
2023-05-10T06:04:54.843Z,45.53
2023-05-10T06:05:56.353Z,45.58
2023-05-10T06:06:57.895Z,45.52
2023-05-10T06:08:00.919Z,45.41
2023-05-10T06:09:02.879Z,45.55
2023-05-10T06:10:04.954Z,45.26
2023-05-10T06:11:06.358Z,45.26
2023-05-10T06:12:07.890Z,45.17
2023-05-10T06:13:10.176Z,45.21
2023-05-10T06:14:11.913Z,45.20
2023-05-10T06:15:13.567Z,45.28
2023-05-10T06:16:15.329Z,45.08
2023-05-10T06:17:16.994Z,45.20
2023-05-10T06:18:18.446Z,44.81
2023-05-10T06:19:19.835Z,44.59
2023-05-10T06:20:21.291Z,44.70
2023-05-10T06:21:22.790Z,44.72
2023-05-10T06:22:24.160Z,44.54
2023-05-10T06:23:25.803Z,44.29
2023-05-10T06:24:27.822Z,44.35
2023-05-10T06:25:29.531Z,44.49
2023-05-10T06:26:30.992Z,44.66
2023-05-10T06:27:32.626Z,44.59
2023-05-10T06:28:34.171Z,44.25
2023-05-10T06:29:35.547Z,44.03
2023-05-10T06:30:37.322Z,43.96
2023-05-10T06:31:38.722Z,44.16
2023-05-10T06:32:40.298Z,43.94
2023-05-10T06:33:41.746Z,43.87
2023-05-10T06:34:44.019Z,44.24
2023-05-10T06:35:45.554Z,44.22
2023-05-10T06:36:47.011Z,44.39
2023-05-10T06:37:48.912Z,44.28
2023-05-10T06:38:51.507Z,44.52
2023-05-10T06:39:52.904Z,44.54
2023-05-10T06:40:54.393Z,44.27
2023-05-10T06:41:55.814Z,44.00
2023-05-10T06:42:57.455Z,44.12
2023-05-10T06:43:58.973Z,44.07
2023-05-10T06:45:00.563Z,43.88
2023-05-10T06:46:02.032Z,43.95
2023-05-10T06:47:03.512Z,43.89
2023-05-10T06:48:05.155Z,44.15
2023-05-10T06:49:06.555Z,44.02
2023-05-10T06:50:09.115Z,43.89
2023-05-10T06:51:10.816Z,44.27
2023-05-10T06:52:12.584Z,43.95
2023-05-10T06:53:14.130Z,43.33
2023-05-10T06:54:15.552Z,43.36
2023-05-10T06:55:17.211Z,43.32
2023-05-10T06:56:21.670Z,43.15
2023-05-10T06:57:31.085Z,43.08
2023-05-10T06:58:33.147Z,43.11
2023-05-10T06:59:34.974Z,42.28
2023-05-10T07:00:40.777Z,42.72
2023-05-10T07:01:42.834Z,42.80
2023-05-10T07:02:44.803Z,42.98
2023-05-10T07:03:46.599Z,42.77
2023-05-10T07:04:48.563Z,41.93
2023-05-10T07:05:50.045Z,42.16
2023-05-10T07:06:51.422Z,42.40
2023-05-10T07:07:52.784Z,42.33
2023-05-10T07:08:54.259Z,42.22
2023-05-10T07:09:56.916Z,41.23
2023-05-10T07:11:03.774Z,41.44
2023-05-10T07:12:05.810Z,41.80
2023-05-10T07:13:08.387Z,41.46
2023-05-10T07:14:10.183Z,41.42
2023-05-10T07:15:11.766Z,41.80
2023-05-10T07:16:13.650Z,41.79
2023-05-10T07:17:15.387Z,41.80
2023-05-10T07:18:16.902Z,41.91
2023-05-10T07:19:18.943Z,41.59
2023-05-10T07:20:21.131Z,41.41
2023-05-10T07:21:24.567Z,41.14
2023-05-10T07:22:26.406Z,40.67
2023-05-10T07:23:28.036Z,40.74
2023-05-10T07:24:30.399Z,40.46
2023-05-10T07:25:32.072Z,40.24
2023-05-10T07:26:33.445Z,40.26
2023-05-10T07:27:35.259Z,40.31
2023-05-10T07:28:37.946Z,40.13
2023-05-10T07:29:39.570Z,40.10
2023-05-10T07:30:41.796Z,40.17
2023-05-10T07:31:43.283Z,39.69
2023-05-10T07:32:45.487Z,40.11
2023-05-10T07:33:46.986Z,39.34
2023-05-10T07:34:48.732Z,39.36
2023-05-10T07:35:50.663Z,39.65
2023-05-10T07:36:52.884Z,39.75
2023-05-10T07:37:54.275Z,39.42
2023-05-10T07:38:57.750Z,38.95
2023-05-10T07:39:59.442Z,38.91
2023-05-10T07:41:01.699Z,38.13
2023-05-10T07:42:03.358Z,38.44
2023-05-10T07:43:04.762Z,38.68
2023-05-10T07:44:06.567Z,37.56
2023-05-10T07:45:08.872Z,37.76
2023-05-10T07:46:11.393Z,37.67
2023-05-10T07:47:12.875Z,37.83
2023-05-10T07:48:14.324Z,38.21
2023-05-10T07:49:16.841Z,38.27
2023-05-10T07:50:18.645Z,38.37
2023-05-10T07:51:20.119Z,37.41
2023-05-10T07:52:22.824Z,38.14
2023-05-10T07:53:26.364Z,38.06
2023-05-10T07:54:28.167Z,38.03
2023-05-10T07:55:30.036Z,37.90
2023-05-10T07:56:32.905Z,37.42
2023-05-10T07:57:34.912Z,37.42
2023-05-10T07:58:36.419Z,37.56
2023-05-10T07:59:37.841Z,37.40
2023-05-10T08:00:39.934Z,36.37
2023-05-10T08:01:42.739Z,36.93
2023-05-10T08:02:44.401Z,37.20
2023-05-10T08:03:46.227Z,36.45
2023-05-10T08:04:47.713Z,36.46
2023-05-10T08:05:49.308Z,35.80
2023-05-10T08:06:50.817Z,36.06
2023-05-10T08:07:52.245Z,35.75
2023-05-10T08:08:54.505Z,36.40
2023-05-10T08:09:56.035Z,35.42
2023-05-10T08:10:57.710Z,35.64
2023-05-10T08:12:00.379Z,35.70
2023-05-10T08:13:01.838Z,35.34
2023-05-10T08:14:03.394Z,35.10
2023-05-10T08:15:05.478Z,35.10
2023-05-10T08:16:07.688Z,35.33
2023-05-10T08:17:09.296Z,35.37
2023-05-10T08:18:10.714Z,35.56
2023-05-10T08:19:12.167Z,35.36
2023-05-10T08:20:16.991Z,35.15
2023-05-10T08:21:18.778Z,34.50
2023-05-10T08:22:20.532Z,35.03
2023-05-10T08:23:21.950Z,35.11
2023-05-10T08:24:23.485Z,34.20
2023-05-10T08:25:24.970Z,33.38
2023-05-10T08:26:27.018Z,33.01
2023-05-10T08:27:28.448Z,33.65
2023-05-10T08:28:29.920Z,34.14
2023-05-10T08:29:38.616Z,33.84
2023-05-10T08:30:48.020Z,33.89
2023-05-10T08:31:49.764Z,32.97
2023-05-10T08:32:51.471Z,33.49
2023-05-10T08:33:53.092Z,33.00
2023-05-10T08:34:54.589Z,31.71
2023-05-10T08:35:56.126Z,32.76
2023-05-10T08:36:57.700Z,33.27
2023-05-10T08:37:59.208Z,33.64
2023-05-10T08:39:00.732Z,33.95
2023-05-10T08:40:03.353Z,33.03
2023-05-10T08:41:06.475Z,32.24
2023-05-10T08:42:09.502Z,31.87
2023-05-10T08:43:13.114Z,31.30
2023-05-10T08:44:16.167Z,32.23
2023-05-10T08:45:20.360Z,32.73
2023-05-10T08:46:23.247Z,32.65
2023-05-10T08:47:25.852Z,31.70
2023-05-10T08:48:30.826Z,32.24
2023-05-10T08:49:33.359Z,32.25
2023-05-10T08:50:37.167Z,32.11
2023-05-10T08:51:44.352Z,31.46
2023-05-10T08:52:49.474Z,32.13
2023-05-10T08:53:51.434Z,31.94
2023-05-10T08:54:53.419Z,32.07
2023-05-10T08:55:55.937Z,31.50
2023-05-10T08:56:57.519Z,30.53
2023-05-10T08:57:59.910Z,30.92
2023-05-10T08:59:02.082Z,31.47
2023-05-10T09:00:04.417Z,30.77
2023-05-10T09:01:06.230Z,30.14
2023-05-10T09:02:10.118Z,29.99
2023-05-10T09:03:13.307Z,30.31
2023-05-10T09:04:14.782Z,30.60
2023-05-10T09:05:18.005Z,30.64
2023-05-10T09:06:20.123Z,30.50
2023-05-10T09:07:21.736Z,31.01
2023-05-10T09:08:27.872Z,31.21
2023-05-10T09:09:29.562Z,30.35
2023-05-10T09:10:31.974Z,30.43
2023-05-10T09:11:33.858Z,30.94
2023-05-10T09:12:36.240Z,30.57
2023-05-10T09:13:38.263Z,30.81
2023-05-10T09:14:40.404Z,31.05
2023-05-10T09:15:42.125Z,29.92
2023-05-10T09:16:43.759Z,30.20
2023-05-10T09:17:46.093Z,30.25
2023-05-10T09:18:47.682Z,30.53
2023-05-10T09:19:49.211Z,30.44
2023-05-10T09:20:50.706Z,30.29
2023-05-10T09:21:52.238Z,29.93
2023-05-10T09:22:53.681Z,29.40
2023-05-10T09:23:55.959Z,28.47
2023-05-10T09:25:12.297Z,29.08
2023-05-10T09:26:13.684Z,29.91
2023-05-10T09:27:15.132Z,29.41
2023-05-10T09:28:16.512Z,29.59
2023-05-10T09:29:18.201Z,29.56
2023-05-10T09:30:31.144Z,29.91
2023-05-10T09:31:54.880Z,28.77
2023-05-10T09:32:58.480Z,28.77
2023-05-10T09:33:59.951Z,28.61
2023-05-10T09:35:10.590Z,28.48
2023-05-10T09:36:12.904Z,28.87
2023-05-10T09:37:14.627Z,29.21
2023-05-10T09:38:16.724Z,29.50
2023-05-10T09:39:18.342Z,28.81
2023-05-10T09:40:25.018Z,29.19
2023-05-10T09:41:28.401Z,28.31
2023-05-10T09:42:30.021Z,28.69
2023-05-10T09:43:38.524Z,28.79
2023-05-10T09:44:41.246Z,28.68
2023-05-10T09:45:42.897Z,28.95
2023-05-10T09:46:49.495Z,29.26
2023-05-10T09:47:51.079Z,29.32
2023-05-10T09:48:52.532Z,28.93
2023-05-10T09:49:58.071Z,28.65
2023-05-10T09:50:59.823Z,29.07
2023-05-10T09:52:01.869Z,28.84
2023-05-10T09:53:04.005Z,27.89
2023-05-10T09:54:16.887Z,27.70
2023-05-10T09:55:23.412Z,27.52
2023-05-10T09:56:36.034Z,27.60
2023-05-10T09:57:37.988Z,27.49
2023-05-10T09:58:39.450Z,27.99
2023-05-10T09:59:43.310Z,28.00
2023-05-10T10:00:48.002Z,28.33
2023-05-10T10:01:56.869Z,28.64
2023-05-10T10:02:59.959Z,28.41
2023-05-10T10:04:06.738Z,28.33
2023-05-10T10:05:09.148Z,28.26
2023-05-10T10:06:18.902Z,28.65
2023-05-10T10:07:28.954Z,28.34
2023-05-10T10:08:30.418Z,28.58
2023-05-10T10:09:33.316Z,28.41
2023-05-10T10:10:34.959Z,28.48
2023-05-10T10:11:38.365Z,28.44
2023-05-10T10:12:41.797Z,28.70
2023-05-10T10:13:43.519Z,28.86
2023-05-10T10:14:46.294Z,28.63
2023-05-10T10:15:51.277Z,28.53
2023-05-10T10:17:06.503Z,28.15
2023-05-10T10:18:13.835Z,28.47
2023-05-10T10:19:15.694Z,28.64
2023-05-10T10:20:19.581Z,28.55
2023-05-10T10:21:22.634Z,28.24
2023-05-10T10:22:24.076Z,27.90
2023-05-10T10:23:25.962Z,27.57
2023-05-10T10:24:27.375Z,27.58
2023-05-10T10:25:29.204Z,28.35
2023-05-10T10:26:30.934Z,28.63
2023-05-10T10:27:57.010Z,28.42
2023-05-10T10:29:35.022Z,28.35
2023-05-10T10:30:47.412Z,27.41
2023-05-10T10:31:56.512Z,27.26
2023-05-10T10:33:32.922Z,27.82
2023-05-10T10:34:34.829Z,27.28
2023-05-10T10:35:37.128Z,27.58
2023-05-10T10:36:46.519Z,27.05
2023-05-10T10:37:51.433Z,26.87
2023-05-10T10:39:01.496Z,26.68
2023-05-10T10:40:22.789Z,26.28
2023-05-10T10:41:33.115Z,26.84
2023-05-10T10:42:50.113Z,27.21
2023-05-10T10:44:27.060Z,26.92
2023-05-10T10:45:29.026Z,26.84
2023-05-10T10:46:30.805Z,26.41
2023-05-10T10:47:33.525Z,26.49
2023-05-10T10:48:36.094Z,26.64
2023-05-10T10:50:00.883Z,26.64
2023-05-10T10:51:03.336Z,26.77
2023-05-10T10:52:24.263Z,27.02
2023-05-10T10:53:29.814Z,27.05
2023-05-10T10:54:32.939Z,27.12
2023-05-10T10:55:34.454Z,25.99
2023-05-10T10:56:37.176Z,26.22
2023-05-10T10:57:48.058Z,26.42
2023-05-10T10:58:53.920Z,26.86
2023-05-10T11:00:31.604Z,27.07
2023-05-10T11:01:35.566Z,27.10
2023-05-10T11:02:46.239Z,27.21
2023-05-10T11:03:59.575Z,26.70
2023-05-10T11:05:37.512Z,26.22
2023-05-10T11:06:40.527Z,26.86
2023-05-10T11:07:55.849Z,26.84
2023-05-10T11:08:57.786Z,26.87
2023-05-10T11:10:04.923Z,27.13
2023-05-10T11:11:07.432Z,26.07
2023-05-10T11:12:09.625Z,26.37
2023-05-10T11:13:11.171Z,26.49
2023-05-10T11:14:12.710Z,25.92
2023-05-10T11:15:14.584Z,24.84
2023-05-10T11:16:17.679Z,25.62
2023-05-10T11:17:29.466Z,25.50
2023-05-10T11:18:31.066Z,24.85
2023-05-10T11:19:32.557Z,24.78
2023-05-10T11:20:40.187Z,25.22
2023-05-10T11:22:13.751Z,25.39
2023-05-10T11:23:16.241Z,25.58
2023-05-10T11:24:28.330Z,25.21
2023-05-10T11:25:29.814Z,25.64
2023-05-10T11:26:34.073Z,25.27
2023-05-10T11:27:38.173Z,24.54
2023-05-10T11:28:48.462Z,24.64
2023-05-10T11:29:52.689Z,24.56
2023-05-10T11:30:54.915Z,23.70
2023-05-10T11:32:00.187Z,23.66
2023-05-10T11:33:01.805Z,23.87
2023-05-10T11:34:03.369Z,23.78
2023-05-10T11:35:08.822Z,24.13
2023-05-10T11:36:16.060Z,24.41
2023-05-10T11:37:18.611Z,24.60
2023-05-10T11:38:20.426Z,24.84
2023-05-10T11:39:26.080Z,24.37
2023-05-10T11:40:27.684Z,25.11
2023-05-10T11:41:31.068Z,23.76
2023-05-10T11:42:32.549Z,23.36
2023-05-10T11:43:34.126Z,23.25
2023-05-10T11:44:35.871Z,23.27
2023-05-10T11:45:37.937Z,23.88
2023-05-10T11:46:39.633Z,23.42
2023-05-10T11:47:43.722Z,23.81
2023-05-10T11:48:45.350Z,23.49
2023-05-10T11:49:48.156Z,22.16
2023-05-10T11:50:50.430Z,23.12
2023-05-10T11:51:51.858Z,23.16
2023-05-10T11:52:54.828Z,22.13
2023-05-10T11:53:57.353Z,22.61
2023-05-10T11:54:58.823Z,23.00
2023-05-10T11:56:08.183Z,22.75
2023-05-10T11:57:10.052Z,23.03
2023-05-10T11:58:11.781Z,22.77
2023-05-10T11:59:15.226Z,23.00
2023-05-10T12:00:17.055Z,23.03
2023-05-10T12:01:18.791Z,22.79
2023-05-10T12:02:20.628Z,21.94
2023-05-10T12:03:22.574Z,21.41
2023-05-10T12:04:25.218Z,21.41
2023-05-10T12:05:26.816Z,21.32
2023-05-10T12:06:31.263Z,21.46
2023-05-10T12:07:32.791Z,21.82
2023-05-10T12:08:34.468Z,22.01
2023-05-10T12:09:43.871Z,21.38
2023-05-10T12:10:46.020Z,21.03
2023-05-10T12:11:47.718Z,21.33
2023-05-10T12:12:52.882Z,22.05
2023-05-10T12:13:55.338Z,21.10
2023-05-10T12:14:56.804Z,21.88
2023-05-10T12:15:59.357Z,21.98
2023-05-10T12:17:00.956Z,21.71
2023-05-10T12:18:03.133Z,21.26
2023-05-10T12:19:05.616Z,20.58
2023-05-10T12:20:21.349Z,21.42
2023-05-10T12:21:22.999Z,21.37
2023-05-10T12:22:24.975Z,20.65
2023-05-10T12:23:26.763Z,19.90
2023-05-10T12:24:28.397Z,20.36
2023-05-10T12:25:33.057Z,20.21
2023-05-10T12:26:35.788Z,20.49
2023-05-10T12:27:37.381Z,20.15
2023-05-10T12:28:42.413Z,20.67
2023-05-10T12:29:46.698Z,20.07
2023-05-10T12:30:48.117Z,19.02
2023-05-10T12:31:54.854Z,18.78
2023-05-10T12:33:11.790Z,18.93
2023-05-10T12:34:23.340Z,18.86
2023-05-10T12:35:24.943Z,19.58
2023-05-10T12:36:26.357Z,19.79
2023-05-10T12:37:28.697Z,19.86
2023-05-10T12:38:33.703Z,18.92
2023-05-10T12:39:42.557Z,18.48
2023-05-10T12:40:44.157Z,19.18
2023-05-10T12:41:45.747Z,19.33
2023-05-10T12:42:47.326Z,19.18
2023-05-10T12:43:48.763Z,19.10
2023-05-10T12:44:50.249Z,18.94
2023-05-10T12:45:51.922Z,18.07
2023-05-10T12:46:53.644Z,18.76
2023-05-10T12:47:55.165Z,18.24
2023-05-10T12:49:08.005Z,18.44
2023-05-10T12:50:10.686Z,18.35
2023-05-10T12:51:13.747Z,18.10
2023-05-10T12:52:15.398Z,16.99
2023-05-10T12:53:17.168Z,16.47
2023-05-10T12:54:18.816Z,17.39
2023-05-10T12:55:20.331Z,16.96
2023-05-10T12:56:22.139Z,16.54
2023-05-10T12:57:23.891Z,17.18
2023-05-10T12:58:34.953Z,16.67
2023-05-10T12:59:38.359Z,16.85
2023-05-10T14:06:09.701Z,14.60
2023-05-10T14:07:11.834Z,14.12
2023-05-10T14:08:14.040Z,14.58
2023-05-10T14:09:16.402Z,14.76
2023-05-10T14:10:18.182Z,14.00
2023-05-10T14:11:21.588Z,14.26
2023-05-10T14:12:24.234Z,14.04
2023-05-10T14:13:25.891Z,14.17
2023-05-10T14:14:29.596Z,14.22
2023-05-10T14:15:31.496Z,13.97
2023-05-10T14:16:33.742Z,13.67
2023-05-10T14:17:35.731Z,14.08
2023-05-10T14:18:38.240Z,13.92
2023-05-10T14:19:40.083Z,13.79
2023-05-10T14:20:41.641Z,14.03
2023-05-10T14:21:43.719Z,13.97
2023-05-10T14:22:45.175Z,13.94
2023-05-10T14:23:46.579Z,13.32
2023-05-10T14:24:47.993Z,13.12
2023-05-10T14:25:49.946Z,13.33
2023-05-10T14:26:54.150Z,13.02
2023-05-10T14:27:55.751Z,13.24
2023-05-10T14:28:57.314Z,12.73
2023-05-10T14:29:58.860Z,12.85
2023-05-10T14:31:00.356Z,13.37
2023-05-10T14:32:03.674Z,13.25
2023-05-10T14:33:05.514Z,12.99
2023-05-10T14:34:07.087Z,13.26
2023-05-10T14:35:12.201Z,13.24
2023-05-10T14:36:14.756Z,13.60
2023-05-10T14:37:16.734Z,13.47
2023-05-10T14:38:18.239Z,13.30
2023-05-10T14:39:19.606Z,13.16
2023-05-10T14:40:21.440Z,13.23
2023-05-10T14:41:23.613Z,13.65
2023-05-10T14:42:25.420Z,13.41
2023-05-10T14:43:28.035Z,12.84
2023-05-10T14:44:29.958Z,13.03
2023-05-10T14:45:31.525Z,12.68
2023-05-10T14:46:34.729Z,12.88
2023-05-10T14:47:36.255Z,13.02
2023-05-10T14:48:38.172Z,12.31
2023-05-10T14:49:39.558Z,13.02